Portada
METAR-TAF:

METAR-TAF

Aeroports :

Pitt-Greenville Airport

Greenville, Carolina del Nord, Estats Units d'Amèrica

latitud: 35-38N, longitud: 077-24W, altitud: 8 m

Observació

L'informe es va fer fa 31 minuts, a les 11:55 UTC
Vent calma
Temperatura 21°C
Humitat 94%
Pressió 1018 hPa
Visibilitat: 11.3 km
Cel clar

METAR: KPGV 291155Z AUTO 00000KT 7SM CLR 21/20 A3006 RMK AO2

Hora: 08:26 (12:26 UTC)

Pronòstic

L'informe es va fer fa 1 hora i 6 minuts, a les 11:20 UTC
Pronòstic vàlid del 29 a les 12 UTC al 30 a les 12 UTC
Vent 6 kt del Sud-Oest
Visibilitat: 10 km
Escasses núvols a una alçada de 25000 ft
Temporalment
l' 29 a les 12 UTC al 29 a les 13 UTC
Visibilitat: 6.4 km
Núvols disperses a una alçada de 700 ft
boirina
A partir de les 29 a les 1900 UTC
Vent 9 kt del Sud
Visibilitat: 10 km
Escasses núvols a una alçada de 6000 ft

TAF: KPGV 291120Z 2912/3012 22006KT P6SM FEW250 TEMPO 2912/2913 4SM BR SCT007 FM291900 19009KT P6SM FEW060 AMD LTD TO CLD VIS AND WIND

Observacions i pronòstics meteorològics de més de 4000 aeroports (METAR i TAF).

Les estacions disponibles són els punts grocs i vermells al mapa.

Posi el ratolí al punt desitjat per veure el nom de l'estació.

Feu clic per veure les observacions i els pronòstics meteorològics.

Per canviar el mapa: feu clic els botons verds amb una creu de color negre per apropar; al botó verd amb un guió per allunyar la imatge; o en les fletxes verdes per a mapes adjacents.


METAR-TAF: